sensor_id;sensor_type;location;lat;lon;timestamp;pressure;altitude;pressure_sealevel;temperature
10058;BMP180;5068;51.286;7.518;2023-10-13T00:01:12;99117.00;;;20.00
10058;BMP180;5068;51.286;7.518;2023-10-13T00:02:47;99118.00;;;20.00
10058;BMP180;5068;51.286;7.518;2023-10-13T00:04:39;99116.00;;;20.00
10058;BMP180;5068;51.286;7.518;2023-10-13T00:06:33;99120.00;;;20.00
10058;BMP180;5068;51.286;7.518;2023-10-13T00:08:25;99108.00;;;20.00
10058;BMP180;5068;51.286;7.518;2023-10-13T00:10:16;99100.00;;;19.90
10058;BMP180;5068;51.286;7.518;2023-10-13T00:11:51;99105.00;;;19.90
10058;BMP180;5068;51.286;7.518;2023-10-13T00:13:27;99104.00;;;20.00
10058;BMP180;5068;51.286;7.518;2023-10-13T00:15:00;99103.00;;;19.90
10058;BMP180;5068;51.286;7.518;2023-10-13T00:16:36;99104.00;;;19.90
10058;BMP180;5068;51.286;7.518;2023-10-13T00:18:14;99102.00;;;20.00
10058;BMP180;5068;51.286;7.518;2023-10-13T00:19:46;99099.00;;;20.00
10058;BMP180;5068;51.286;7.518;2023-10-13T00:21:24;99106.00;;;20.00
10058;BMP180;5068;51.286;7.518;2023-10-13T00:23:04;99104.00;;;20.00
10058;BMP180;5068;51.286;7.518;2023-10-13T00:24:39;99100.00;;;20.00
10058;BMP180;5068;51.286;7.518;2023-10-13T00:26:17;99090.00;;;20.00
10058;BMP180;5068;51.286;7.518;2023-10-13T00:27:54;99091.00;;;20.00
10058;BMP180;5068;51.286;7.518;2023-10-13T00:29:27;99097.00;;;20.00
10058;BMP180;5068;51.286;7.518;2023-10-13T00:31:09;99087.00;;;20.00
10058;BMP180;5068;51.286;7.518;2023-10-13T00:32:45;99089.00;;;20.00
10058;BMP180;5068;51.286;7.518;2023-10-13T00:34:20;99085.00;;;20.00
10058;BMP180;5068;51.286;7.518;2023-10-13T00:35:58;99082.00;;;20.00
10058;BMP180;5068;51.286;7.518;2023-10-13T00:37:33;99083.00;;;19.90
10058;BMP180;5068;51.286;7.518;2023-10-13T00:39:14;99076.00;;;19.90
10058;BMP180;5068;51.286;7.518;2023-10-13T00:40:47;99079.00;;;19.90
10058;BMP180;5068;51.286;7.518;2023-10-13T00:42:25;99069.00;;;19.90
10058;BMP180;5068;51.286;7.518;2023-10-13T00:44:19;99068.00;;;19.90
10058;BMP180;5068;51.286;7.518;2023-10-13T00:46:01;99072.00;;;19.90
10058;BMP180;5068;51.286;7.518;2023-10-13T00:47:45;99072.00;;;19.90
10058;BMP180;5068;51.286;7.518;2023-10-13T00:49:23;99073.00;;;19.90
10058;BMP180;5068;51.286;7.518;2023-10-13T00:50:58;99060.00;;;19.90
10058;BMP180;5068;51.286;7.518;2023-10-13T00:52:36;99056.00;;;19.90
10058;BMP180;5068;51.286;7.518;2023-10-13T00:54:10;99055.00;;;19.90
10058;BMP180;5068;51.286;7.518;2023-10-13T00:55:43;99059.00;;;19.80
10058;BMP180;5068;51.286;7.518;2023-10-13T00:57:16;99051.00;;;19.80
10058;BMP180;5068;51.286;7.518;2023-10-13T00:58:58;99062.00;;;19.80
10058;BMP180;5068;51.286;7.518;2023-10-13T01:00:34;99057.00;;;19.80
10058;BMP180;5068;51.286;7.518;2023-10-13T01:02:18;99055.00;;;19.80
10058;BMP180;5068;51.286;7.518;2023-10-13T01:04:11;99052.00;;;19.80
10058;BMP180;5068;51.286;7.518;2023-10-13T01:05:49;99055.00;;;19.80
10058;BMP180;5068;51.286;7.518;2023-10-13T01:07:26;99051.00;;;19.80
10058;BMP180;5068;51.286;7.518;2023-10-13T01:09:00;99056.00;;;19.80
10058;BMP180;5068;51.286;7.518;2023-10-13T01:10:43;99044.00;;;19.80
10058;BMP180;5068;51.286;7.518;2023-10-13T01:12:15;99049.00;;;19.80
10058;BMP180;5068;51.286;7.518;2023-10-13T01:13:48;99053.00;;;19.80
10058;BMP180;5068;51.286;7.518;2023-10-13T01:15:23;99050.00;;;19.80
10058;BMP180;5068;51.286;7.518;2023-10-13T01:17:02;99040.00;;;19.80
10058;BMP180;5068;51.286;7.518;2023-10-13T01:18:36;99041.00;;;19.80
10058;BMP180;5068;51.286;7.518;2023-10-13T01:20:19;99043.00;;;19.80
10058;BMP180;5068;51.286;7.518;2023-10-13T01:21:58;99039.00;;;19.80
10058;BMP180;5068;51.286;7.518;2023-10-13T01:23:36;99035.00;;;19.80
10058;BMP180;5068;51.286;7.518;2023-10-13T01:25:14;99029.00;;;19.80
10058;BMP180;5068;51.286;7.518;2023-10-13T01:26:51;99035.00;;;19.80
10058;BMP180;5068;51.286;7.518;2023-10-13T01:28:24;99029.00;;;19.80
10058;BMP180;5068;51.286;7.518;2023-10-13T01:29:57;99020.00;;;19.80
10058;BMP180;5068;51.286;7.518;2023-10-13T01:31:37;99023.00;;;19.80
10058;BMP180;5068;51.286;7.518;2023-10-13T01:33:17;99018.00;;;19.80
10058;BMP180;5068;51.286;7.518;2023-10-13T01:34:58;99022.00;;;19.70
10058;BMP180;5068;51.286;7.518;2023-10-13T01:36:38;99021.00;;;19.70
10058;BMP180;5068;51.286;7.518;2023-10-13T01:38:12;99014.00;;;19.70
10058;BMP180;5068;51.286;7.518;2023-10-13T01:39:46;99022.00;;;19.70
10058;BMP180;5068;51.286;7.518;2023-10-13T01:41:21;99016.00;;;19.70
10058;BMP180;5068;51.286;7.518;2023-10-13T01:42:54;99016.00;;;19.70
10058;BMP180;5068;51.286;7.518;2023-10-13T01:44:27;99011.00;;;19.70
10058;BMP180;5068;51.286;7.518;2023-10-13T01:46:03;99001.00;;;19.70
10058;BMP180;5068;51.286;7.518;2023-10-13T01:47:35;99003.00;;;19.70
10058;BMP180;5068;51.286;7.518;2023-10-13T01:49:09;99005.00;;;19.70
10058;BMP180;5068;51.286;7.518;2023-10-13T01:50:41;99005.00;;;19.70
10058;BMP180;5068;51.286;7.518;2023-10-13T01:52:19;99004.00;;;19.70
10058;BMP180;5068;51.286;7.518;2023-10-13T01:53:51;99004.00;;;19.70
10058;BMP180;5068;51.286;7.518;2023-10-13T01:55:30;99001.00;;;19.70
10058;BMP180;5068;51.286;7.518;2023-10-13T01:57:08;98992.00;;;19.60
10058;BMP180;5068;51.286;7.518;2023-10-13T01:58:45;98986.00;;;19.70
10058;BMP180;5068;51.286;7.518;2023-10-13T02:00:20;98995.00;;;19.60
10058;BMP180;5068;51.286;7.518;2023-10-13T02:01:52;98987.00;;;19.60
10058;BMP180;5068;51.286;7.518;2023-10-13T02:03:28;98988.00;;;19.60
10058;BMP180;5068;51.286;7.518;2023-10-13T02:05:02;98985.00;;;19.60
10058;BMP180;5068;51.286;7.518;2023-10-13T02:06:37;98980.00;;;19.60
10058;BMP180;5068;51.286;7.518;2023-10-13T02:08:10;98980.00;;;19.70
10058;BMP180;5068;51.286;7.518;2023-10-13T02:09:49;98980.00;;;19.70
10058;BMP180;5068;51.286;7.518;2023-10-13T02:11:23;98984.00;;;19.70
10058;BMP180;5068;51.286;7.518;2023-10-13T02:12:56;98978.00;;;19.70
10058;BMP180;5068;51.286;7.518;2023-10-13T02:14:29;98977.00;;;19.70
10058;BMP180;5068;51.286;7.518;2023-10-13T02:16:05;98974.00;;;19.70
10058;BMP180;5068;51.286;7.518;2023-10-13T02:17:39;98979.00;;;19.70
10058;BMP180;5068;51.286;7.518;2023-10-13T02:19:16;98973.00;;;19.70
10058;BMP180;5068;51.286;7.518;2023-10-13T02:20:52;98966.00;;;19.70
10058;BMP180;5068;51.286;7.518;2023-10-13T02:22:27;98972.00;;;19.70
10058;BMP180;5068;51.286;7.518;2023-10-13T02:24:01;98962.00;;;19.70
10058;BMP180;5068;51.286;7.518;2023-10-13T02:25:35;98965.00;;;19.70
10058;BMP180;5068;51.286;7.518;2023-10-13T02:27:16;98968.00;;;19.70
10058;BMP180;5068;51.286;7.518;2023-10-13T02:28:48;98963.00;;;19.70
10058;BMP180;5068;51.286;7.518;2023-10-13T02:30:25;98955.00;;;19.70
10058;BMP180;5068;51.286;7.518;2023-10-13T02:32:00;98952.00;;;19.70
10058;BMP180;5068;51.286;7.518;2023-10-13T02:33:36;98949.00;;;19.70
10058;BMP180;5068;51.286;7.518;2023-10-13T02:35:16;98937.00;;;19.70
10058;BMP180;5068;51.286;7.518;2023-10-13T02:36:50;98935.00;;;19.60
10058;BMP180;5068;51.286;7.518;2023-10-13T02:38:22;98931.00;;;19.60
10058;BMP180;5068;51.286;7.518;2023-10-13T02:39:59;98926.00;;;19.70
10058;BMP180;5068;51.286;7.518;2023-10-13T02:41:34;98924.00;;;19.60
10058;BMP180;5068;51.286;7.518;2023-10-13T02:43:10;98928.00;;;19.60
10058;BMP180;5068;51.286;7.518;2023-10-13T02:44:43;98918.00;;;19.60
10058;BMP180;5068;51.286;7.518;2023-10-13T02:46:19;98921.00;;;19.60
10058;BMP180;5068;51.286;7.518;2023-10-13T02:47:54;98928.00;;;19.60
10058;BMP180;5068;51.286;7.518;2023-10-13T02:49:44;98925.00;;;19.60
10058;BMP180;5068;51.286;7.518;2023-10-13T02:51:20;98916.00;;;19.70
10058;BMP180;5068;51.286;7.518;2023-10-13T02:52:57;98919.00;;;19.60
10058;BMP180;5068;51.286;7.518;2023-10-13T02:54:29;98915.00;;;19.70
10058;BMP180;5068;51.286;7.518;2023-10-13T02:56:03;98912.00;;;19.70
10058;BMP180;5068;51.286;7.518;2023-10-13T02:57:38;98908.00;;;19.70
10058;BMP180;5068;51.286;7.518;2023-10-13T02:59:13;98913.00;;;19.70
10058;BMP180;5068;51.286;7.518;2023-10-13T03:00:46;98911.00;;;19.70
10058;BMP180;5068;51.286;7.518;2023-10-13T03:02:18;98902.00;;;19.70
10058;BMP180;5068;51.286;7.518;2023-10-13T03:03:56;98903.00;;;19.70
10058;BMP180;5068;51.286;7.518;2023-10-13T03:05:34;98903.00;;;19.70
10058;BMP180;5068;51.286;7.518;2023-10-13T03:07:07;98900.00;;;19.70
10058;BMP180;5068;51.286;7.518;2023-10-13T03:08:41;98891.00;;;19.70
10058;BMP180;5068;51.286;7.518;2023-10-13T03:10:14;98881.00;;;19.70
10058;BMP180;5068;51.286;7.518;2023-10-13T03:11:51;98880.00;;;19.70
10058;BMP180;5068;51.286;7.518;2023-10-13T03:13:23;98890.00;;;19.70
10058;BMP180;5068;51.286;7.518;2023-10-13T03:15:00;98877.00;;;19.70
10058;BMP180;5068;51.286;7.518;2023-10-13T03:16:45;98893.00;;;19.70
10058;BMP180;5068;51.286;7.518;2023-10-13T03:18:18;98891.00;;;19.70
10058;BMP180;5068;51.286;7.518;2023-10-13T03:19:51;98884.00;;;19.70
10058;BMP180;5068;51.286;7.518;2023-10-13T03:21:26;98884.00;;;19.70
10058;BMP180;5068;51.286;7.518;2023-10-13T03:23:02;98890.00;;;19.70
10058;BMP180;5068;51.286;7.518;2023-10-13T03:24:42;98891.00;;;19.80
10058;BMP180;5068;51.286;7.518;2023-10-13T03:26:18;98879.00;;;19.80
10058;BMP180;5068;51.286;7.518;2023-10-13T03:27:53;98885.00;;;19.80
10058;BMP180;5068;51.286;7.518;2023-10-13T03:29:39;98881.00;;;19.80
10058;BMP180;5068;51.286;7.518;2023-10-13T03:31:16;98875.00;;;19.70
10058;BMP180;5068;51.286;7.518;2023-10-13T03:32:50;98864.00;;;19.80
10058;BMP180;5068;51.286;7.518;2023-10-13T03:34:26;98862.00;;;19.80
10058;BMP180;5068;51.286;7.518;2023-10-13T03:36:01;98863.00;;;19.80
10058;BMP180;5068;51.286;7.518;2023-10-13T03:37:38;98866.00;;;19.80
10058;BMP180;5068;51.286;7.518;2023-10-13T03:39:11;98860.00;;;19.80
10058;BMP180;5068;51.286;7.518;2023-10-13T03:40:45;98855.00;;;19.80
10058;BMP180;5068;51.286;7.518;2023-10-13T03:42:20;98859.00;;;19.80
10058;BMP180;5068;51.286;7.518;2023-10-13T03:43:54;98858.00;;;19.80
10058;BMP180;5068;51.286;7.518;2023-10-13T03:45:41;98838.00;;;19.80
10058;BMP180;5068;51.286;7.518;2023-10-13T03:47:16;98845.00;;;19.80
10058;BMP180;5068;51.286;7.518;2023-10-13T03:48:58;98851.00;;;19.80
10058;BMP180;5068;51.286;7.518;2023-10-13T03:50:34;98854.00;;;19.80
10058;BMP180;5068;51.286;7.518;2023-10-13T03:52:08;98844.00;;;19.80
10058;BMP180;5068;51.286;7.518;2023-10-13T03:53:45;98842.00;;;19.80
10058;BMP180;5068;51.286;7.518;2023-10-13T03:55:25;98832.00;;;19.80
10058;BMP180;5068;51.286;7.518;2023-10-13T03:57:01;98840.00;;;19.80
10058;BMP180;5068;51.286;7.518;2023-10-13T03:58:42;98827.00;;;19.80
10058;BMP180;5068;51.286;7.518;2023-10-13T04:00:18;98834.00;;;19.80
10058;BMP180;5068;51.286;7.518;2023-10-13T04:01:56;98827.00;;;19.80
10058;BMP180;5068;51.286;7.518;2023-10-13T04:03:36;98829.00;;;19.80
10058;BMP180;5068;51.286;7.518;2023-10-13T04:05:29;98824.00;;;19.80
10058;BMP180;5068;51.286;7.518;2023-10-13T04:07:10;98829.00;;;19.80
10058;BMP180;5068;51.286;7.518;2023-10-13T04:08:58;98826.00;;;19.80
10058;BMP180;5068;51.286;7.518;2023-10-13T04:10:57;98818.00;;;19.80
10058;BMP180;5068;51.286;7.518;2023-10-13T04:12:48;98821.00;;;19.80
10058;BMP180;5068;51.286;7.518;2023-10-13T04:14:53;98806.00;;;19.80
10058;BMP180;5068;51.286;7.518;2023-10-13T04:16:43;98806.00;;;19.80
10058;BMP180;5068;51.286;7.518;2023-10-13T04:18:24;98803.00;;;19.80
10058;BMP180;5068;51.286;7.518;2023-10-13T04:20:08;98802.00;;;19.80
10058;BMP180;5068;51.286;7.518;2023-10-13T04:21:59;98803.00;;;19.80
10058;BMP180;5068;51.286;7.518;2023-10-13T04:23:31;98791.00;;;19.80
10058;BMP180;5068;51.286;7.518;2023-10-13T04:25:27;98804.00;;;19.90
10058;BMP180;5068;51.286;7.518;2023-10-13T04:27:07;98802.00;;;19.90
10058;BMP180;5068;51.286;7.518;2023-10-13T04:28:58;98793.00;;;19.90
10058;BMP180;5068;51.286;7.518;2023-10-13T04:30:43;98778.00;;;19.90
10058;BMP180;5068;51.286;7.518;2023-10-13T04:32:31;98792.00;;;19.90
10058;BMP180;5068;51.286;7.518;2023-10-13T04:34:10;98786.00;;;19.90
10058;BMP180;5068;51.286;7.518;2023-10-13T04:35:53;98776.00;;;19.90
10058;BMP180;5068;51.286;7.518;2023-10-13T04:37:31;98777.00;;;19.90
10058;BMP180;5068;51.286;7.518;2023-10-13T04:39:20;98776.00;;;19.90
10058;BMP180;5068;51.286;7.518;2023-10-13T04:41:01;98784.00;;;19.90
10058;BMP180;5068;51.286;7.518;2023-10-13T04:42:42;98774.00;;;19.90
10058;BMP180;5068;51.286;7.518;2023-10-13T04:44:25;98777.00;;;19.90
10058;BMP180;5068;51.286;7.518;2023-10-13T04:46:16;98779.00;;;19.90
10058;BMP180;5068;51.286;7.518;2023-10-13T04:48:07;98773.00;;;19.90
10058;BMP180;5068;51.286;7.518;2023-10-13T04:49:50;98764.00;;;19.90
10058;BMP180;5068;51.286;7.518;2023-10-13T04:51:25;98772.00;;;19.90
10058;BMP180;5068;51.286;7.518;2023-10-13T04:53:21;98766.00;;;19.90
10058;BMP180;5068;51.286;7.518;2023-10-13T04:55:02;98762.00;;;19.90
10058;BMP180;5068;51.286;7.518;2023-10-13T04:56:48;98761.00;;;19.90
10058;BMP180;5068;51.286;7.518;2023-10-13T04:58:52;98761.00;;;19.90
10058;BMP180;5068;51.286;7.518;2023-10-13T05:00:43;98753.00;;;19.90
10058;BMP180;5068;51.286;7.518;2023-10-13T05:02:48;98749.00;;;19.90
10058;BMP180;5068;51.286;7.518;2023-10-13T05:04:49;98742.00;;;19.90
10058;BMP180;5068;51.286;7.518;2023-10-13T05:06:55;98751.00;;;19.90
10058;BMP180;5068;51.286;7.518;2023-10-13T05:08:45;98755.00;;;19.90
10058;BMP180;5068;51.286;7.518;2023-10-13T05:10:55;98750.00;;;19.90
10058;BMP180;5068;51.286;7.518;2023-10-13T05:12:57;98737.00;;;19.90
10058;BMP180;5068;51.286;7.518;2023-10-13T05:15:07;98738.00;;;19.90
10058;BMP180;5068;51.286;7.518;2023-10-13T05:17:04;98736.00;;;19.90
10058;BMP180;5068;51.286;7.518;2023-10-13T05:18:54;98734.00;;;20.00
10058;BMP180;5068;51.286;7.518;2023-10-13T05:20:45;98745.00;;;20.00
10058;BMP180;5068;51.286;7.518;2023-10-13T05:22:37;98730.00;;;20.00
10058;BMP180;5068;51.286;7.518;2023-10-13T05:24:29;98725.00;;;20.00
10058;BMP180;5068;51.286;7.518;2023-10-13T05:26:20;98730.00;;;20.00
10058;BMP180;5068;51.286;7.518;2023-10-13T05:28:10;98741.00;;;20.00
10058;BMP180;5068;51.286;7.518;2023-10-13T05:30:25;98733.00;;;20.00
10058;BMP180;5068;51.286;7.518;2023-10-13T05:32:34;98729.00;;;20.00
10058;BMP180;5068;51.286;7.518;2023-10-13T05:34:25;98731.00;;;20.00
10058;BMP180;5068;51.286;7.518;2023-10-13T05:36:43;98723.00;;;20.00
10058;BMP180;5068;51.286;7.518;2023-10-13T05:38:54;98732.00;;;20.00
10058;BMP180;5068;51.286;7.518;2023-10-13T05:41:12;98729.00;;;20.00
10058;BMP180;5068;51.286;7.518;2023-10-13T05:43:03;98727.00;;;20.00
10058;BMP180;5068;51.286;7.518;2023-10-13T05:44:54;98734.00;;;20.00
10058;BMP180;5068;51.286;7.518;2023-10-13T05:46:49;98728.00;;;20.00
10058;BMP180;5068;51.286;7.518;2023-10-13T05:48:21;98718.00;;;20.10
10058;BMP180;5068;51.286;7.518;2023-10-13T05:50:14;98719.00;;;20.10
10058;BMP180;5068;51.286;7.518;2023-10-13T05:52:12;98726.00;;;20.10
10058;BMP180;5068;51.286;7.518;2023-10-13T05:54:13;98730.00;;;20.10
10058;BMP180;5068;51.286;7.518;2023-10-13T05:56:07;98732.00;;;20.10
10058;BMP180;5068;51.286;7.518;2023-10-13T05:57:58;98728.00;;;20.10
10058;BMP180;5068;51.286;7.518;2023-10-13T05:59:49;98733.00;;;20.10
10058;BMP180;5068;51.286;7.518;2023-10-13T06:01:40;98738.00;;;20.10
10058;BMP180;5068;51.286;7.518;2023-10-13T06:03:31;98736.00;;;20.10
10058;BMP180;5068;51.286;7.518;2023-10-13T06:05:22;98732.00;;;20.10
10058;BMP180;5068;51.286;7.518;2023-10-13T06:07:14;98733.00;;;20.10
10058;BMP180;5068;51.286;7.518;2023-10-13T06:09:06;98729.00;;;20.10
10058;BMP180;5068;51.286;7.518;2023-10-13T06:11:01;98734.00;;;20.10
10058;BMP180;5068;51.286;7.518;2023-10-13T06:12:52;98736.00;;;20.10
10058;BMP180;5068;51.286;7.518;2023-10-13T06:14:45;98755.00;;;20.10
10058;BMP180;5068;51.286;7.518;2023-10-13T06:16:36;98760.00;;;20.20
10058;BMP180;5068;51.286;7.518;2023-10-13T06:18:27;98760.00;;;20.20
10058;BMP180;5068;51.286;7.518;2023-10-13T06:20:18;98747.00;;;20.20
10058;BMP180;5068;51.286;7.518;2023-10-13T06:22:09;98757.00;;;20.20
10058;BMP180;5068;51.286;7.518;2023-10-13T06:24:01;98744.00;;;20.10
10058;BMP180;5068;51.286;7.518;2023-10-13T06:26:07;98745.00;;;20.10
10058;BMP180;5068;51.286;7.518;2023-10-13T06:27:57;98752.00;;;20.10
10058;BMP180;5068;51.286;7.518;2023-10-13T06:29:48;98756.00;;;20.20
10058;BMP180;5068;51.286;7.518;2023-10-13T06:31:21;98753.00;;;20.20
10058;BMP180;5068;51.286;7.518;2023-10-13T06:32:55;98767.00;;;20.20
10058;BMP180;5068;51.286;7.518;2023-10-13T06:34:28;98755.00;;;20.20
10058;BMP180;5068;51.286;7.518;2023-10-13T06:36:10;98763.00;;;20.20
10058;BMP180;5068;51.286;7.518;2023-10-13T06:37:43;98768.00;;;20.20
10058;BMP180;5068;51.286;7.518;2023-10-13T06:39:17;98772.00;;;20.30
10058;BMP180;5068;51.286;7.518;2023-10-13T06:41:08;98768.00;;;20.30
10058;BMP180;5068;51.286;7.518;2023-10-13T06:42:40;98770.00;;;20.30
10058;BMP180;5068;51.286;7.518;2023-10-13T06:44:15;98778.00;;;20.30
10058;BMP180;5068;51.286;7.518;2023-10-13T06:45:48;98768.00;;;20.30
10058;BMP180;5068;51.286;7.518;2023-10-13T06:47:33;98765.00;;;20.40
10058;BMP180;5068;51.286;7.518;2023-10-13T06:49:06;98764.00;;;20.40
10058;BMP180;5068;51.286;7.518;2023-10-13T06:50:48;98754.00;;;20.40
10058;BMP180;5068;51.286;7.518;2023-10-13T06:52:21;98747.00;;;20.40
10058;BMP180;5068;51.286;7.518;2023-10-13T06:53:54;98741.00;;;20.40
10058;BMP180;5068;51.286;7.518;2023-10-13T06:55:30;98745.00;;;20.40
10058;BMP180;5068;51.286;7.518;2023-10-13T06:57:07;98745.00;;;20.50
10058;BMP180;5068;51.286;7.518;2023-10-13T06:58:46;98741.00;;;20.50
10058;BMP180;5068;51.286;7.518;2023-10-13T07:00:18;98719.00;;;20.50
10058;BMP180;5068;51.286;7.518;2023-10-13T07:02:00;98730.00;;;20.50
10058;BMP180;5068;51.286;7.518;2023-10-13T07:03:56;98723.00;;;20.50
10058;BMP180;5068;51.286;7.518;2023-10-13T07:05:37;98707.00;;;20.50
10058;BMP180;5068;51.286;7.518;2023-10-13T07:07:11;98695.00;;;20.50
10058;BMP180;5068;51.286;7.518;2023-10-13T07:08:47;98692.00;;;20.60
10058;BMP180;5068;51.286;7.518;2023-10-13T07:10:23;98692.00;;;20.60
10058;BMP180;5068;51.286;7.518;2023-10-13T07:12:05;98679.00;;;20.60
10058;BMP180;5068;51.286;7.518;2023-10-13T07:13:39;98679.00;;;20.50
10058;BMP180;5068;51.286;7.518;2023-10-13T07:15:19;98681.00;;;20.60
10058;BMP180;5068;51.286;7.518;2023-10-13T07:16:57;98672.00;;;20.50
10058;BMP180;5068;51.286;7.518;2023-10-13T07:18:31;98670.00;;;20.60
10058;BMP180;5068;51.286;7.518;2023-10-13T07:20:09;98678.00;;;20.60
10058;BMP180;5068;51.286;7.518;2023-10-13T07:21:48;98676.00;;;20.60
10058;BMP180;5068;51.286;7.518;2023-10-13T07:23:21;98673.00;;;20.60
10058;BMP180;5068;51.286;7.518;2023-10-13T07:24:56;98672.00;;;20.60
10058;BMP180;5068;51.286;7.518;2023-10-13T07:26:30;98685.00;;;20.60
10058;BMP180;5068;51.286;7.518;2023-10-13T07:28:07;98686.00;;;20.60
10058;BMP180;5068;51.286;7.518;2023-10-13T07:29:41;98690.00;;;20.60
10058;BMP180;5068;51.286;7.518;2023-10-13T07:31:14;98687.00;;;20.60
10058;BMP180;5068;51.286;7.518;2023-10-13T07:32:48;98696.00;;;20.60
10058;BMP180;5068;51.286;7.518;2023-10-13T07:34:22;98686.00;;;20.60
10058;BMP180;5068;51.286;7.518;2023-10-13T07:36:04;98689.00;;;20.60
10058;BMP180;5068;51.286;7.518;2023-10-13T07:37:43;98687.00;;;20.60
10058;BMP180;5068;51.286;7.518;2023-10-13T07:39:16;98685.00;;;20.70
10058;BMP180;5068;51.286;7.518;2023-10-13T07:40:58;98679.00;;;20.70
10058;BMP180;5068;51.286;7.518;2023-10-13T07:42:39;98684.00;;;20.70
10058;BMP180;5068;51.286;7.518;2023-10-13T07:44:16;98680.00;;;20.70
10058;BMP180;5068;51.286;7.518;2023-10-13T07:45:49;98680.00;;;20.70
10058;BMP180;5068;51.286;7.518;2023-10-13T07:47:24;98665.00;;;20.80
10058;BMP180;5068;51.286;7.518;2023-10-13T07:48:58;98668.00;;;20.80
10058;BMP180;5068;51.286;7.518;2023-10-13T07:50:42;98679.00;;;20.80
10058;BMP180;5068;51.286;7.518;2023-10-13T07:52:16;98670.00;;;20.80
10058;BMP180;5068;51.286;7.518;2023-10-13T07:54:08;98660.00;;;20.80
10058;BMP180;5068;51.286;7.518;2023-10-13T07:55:43;98661.00;;;20.80
10058;BMP180;5068;51.286;7.518;2023-10-13T07:57:17;98663.00;;;20.80
10058;BMP180;5068;51.286;7.518;2023-10-13T07:58:49;98653.00;;;20.80
10058;BMP180;5068;51.286;7.518;2023-10-13T08:00:37;98667.00;;;20.80
10058;BMP180;5068;51.286;7.518;2023-10-13T08:02:25;98660.00;;;20.80
10058;BMP180;5068;51.286;7.518;2023-10-13T08:04:21;98657.00;;;20.80
10058;BMP180;5068;51.286;7.518;2023-10-13T08:06:00;98656.00;;;20.90
10058;BMP180;5068;51.286;7.518;2023-10-13T08:07:38;98658.00;;;20.90
10058;BMP180;5068;51.286;7.518;2023-10-13T08:09:12;98659.00;;;20.90
10058;BMP180;5068;51.286;7.518;2023-10-13T08:10:59;98656.00;;;20.90
10058;BMP180;5068;51.286;7.518;2023-10-13T08:12:43;98657.00;;;20.90
10058;BMP180;5068;51.286;7.518;2023-10-13T08:14:16;98661.00;;;21.00
10058;BMP180;5068;51.286;7.518;2023-10-13T08:16:11;98660.00;;;21.00
10058;BMP180;5068;51.286;7.518;2023-10-13T08:17:52;98654.00;;;21.00
10058;BMP180;5068;51.286;7.518;2023-10-13T08:19:30;98658.00;;;21.00
10058;BMP180;5068;51.286;7.518;2023-10-13T08:21:12;98651.00;;;21.00
10058;BMP180;5068;51.286;7.518;2023-10-13T08:22:48;98653.00;;;21.10
10058;BMP180;5068;51.286;7.518;2023-10-13T08:24:22;98646.00;;;21.10
10058;BMP180;5068;51.286;7.518;2023-10-13T08:25:57;98644.00;;;21.10
10058;BMP180;5068;51.286;7.518;2023-10-13T08:27:53;98640.00;;;21.10
10058;BMP180;5068;51.286;7.518;2023-10-13T08:29:53;98638.00;;;21.10
10058;BMP180;5068;51.286;7.518;2023-10-13T08:31:45;98633.00;;;21.10
10058;BMP180;5068;51.286;7.518;2023-10-13T08:33:36;98635.00;;;21.20
10058;BMP180;5068;51.286;7.518;2023-10-13T08:35:11;98616.00;;;21.20
10058;BMP180;5068;51.286;7.518;2023-10-13T08:36:54;98620.00;;;21.20
10058;BMP180;5068;51.286;7.518;2023-10-13T08:38:28;98623.00;;;21.20
10058;BMP180;5068;51.286;7.518;2023-10-13T08:40:04;98614.00;;;21.20
10058;BMP180;5068;51.286;7.518;2023-10-13T08:41:59;98620.00;;;21.30
10058;BMP180;5068;51.286;7.518;2023-10-13T08:43:44;98623.00;;;21.30
10058;BMP180;5068;51.286;7.518;2023-10-13T08:45:23;98620.00;;;21.30
10058;BMP180;5068;51.286;7.518;2023-10-13T08:47:12;98616.00;;;21.30
10058;BMP180;5068;51.286;7.518;2023-10-13T08:48:55;98621.00;;;21.40
10058;BMP180;5068;51.286;7.518;2023-10-13T08:50:39;98620.00;;;21.40
10058;BMP180;5068;51.286;7.518;2023-10-13T08:52:26;98623.00;;;21.50
10058;BMP180;5068;51.286;7.518;2023-10-13T08:54:19;98618.00;;;21.50
10058;BMP180;5068;51.286;7.518;2023-10-13T08:56:09;98616.00;;;21.50
10058;BMP180;5068;51.286;7.518;2023-10-13T08:57:46;98613.00;;;21.60
10058;BMP180;5068;51.286;7.518;2023-10-13T08:59:22;98622.00;;;21.60
10058;BMP180;5068;51.286;7.518;2023-10-13T09:01:05;98615.00;;;21.70
10058;BMP180;5068;51.286;7.518;2023-10-13T09:02:45;98619.00;;;21.70
10058;BMP180;5068;51.286;7.518;2023-10-13T09:04:52;98619.00;;;21.80
10058;BMP180;5068;51.286;7.518;2023-10-13T09:06:31;98623.00;;;21.90
10058;BMP180;5068;51.286;7.518;2023-10-13T09:08:08;98613.00;;;21.90
10058;BMP180;5068;51.286;7.518;2023-10-13T09:09:49;98623.00;;;22.00
10058;BMP180;5068;51.286;7.518;2023-10-13T09:11:45;98618.00;;;22.00
10058;BMP180;5068;51.286;7.518;2023-10-13T09:13:21;98611.00;;;22.10
10058;BMP180;5068;51.286;7.518;2023-10-13T09:14:56;98603.00;;;22.20
10058;BMP180;5068;51.286;7.518;2023-10-13T09:16:29;98599.00;;;22.20
10058;BMP180;5068;51.286;7.518;2023-10-13T09:18:27;98598.00;;;22.30
10058;BMP180;5068;51.286;7.518;2023-10-13T09:20:28;98609.00;;;22.40
10058;BMP180;5068;51.286;7.518;2023-10-13T09:22:07;98613.00;;;22.50
10058;BMP180;5068;51.286;7.518;2023-10-13T09:23:46;98594.00;;;22.60
10058;BMP180;5068;51.286;7.518;2023-10-13T09:25:25;98602.00;;;22.60
10058;BMP180;5068;51.286;7.518;2023-10-13T09:27:05;98606.00;;;22.70
10058;BMP180;5068;51.286;7.518;2023-10-13T09:28:37;98601.00;;;22.70
10058;BMP180;5068;51.286;7.518;2023-10-13T09:30:12;98582.00;;;22.70
10058;BMP180;5068;51.286;7.518;2023-10-13T09:32:02;98593.00;;;22.80
10058;BMP180;5068;51.286;7.518;2023-10-13T09:33:37;98590.00;;;22.80
10058;BMP180;5068;51.286;7.518;2023-10-13T09:35:20;98584.00;;;22.80
10058;BMP180;5068;51.286;7.518;2023-10-13T09:36:58;98585.00;;;22.80
10058;BMP180;5068;51.286;7.518;2023-10-13T09:38:33;98591.00;;;22.80
10058;BMP180;5068;51.286;7.518;2023-10-13T09:40:09;98587.00;;;22.80
10058;BMP180;5068;51.286;7.518;2023-10-13T09:41:57;98588.00;;;22.90
10058;BMP180;5068;51.286;7.518;2023-10-13T09:43:31;98581.00;;;22.90
10058;BMP180;5068;51.286;7.518;2023-10-13T09:45:05;98578.00;;;22.90
10058;BMP180;5068;51.286;7.518;2023-10-13T09:46:44;98574.00;;;22.90
10058;BMP180;5068;51.286;7.518;2023-10-13T09:48:20;98567.00;;;23.00
10058;BMP180;5068;51.286;7.518;2023-10-13T09:50:01;98571.00;;;23.00
10058;BMP180;5068;51.286;7.518;2023-10-13T09:51:38;98566.00;;;23.10
10058;BMP180;5068;51.286;7.518;2023-10-13T09:53:14;98560.00;;;23.10